createdAt,value
2022-12-31T00:00:00.412Z,99187.63
2022-12-31T00:00:12.733Z,99187.09
2022-12-31T00:00:24.720Z,99189.28
2022-12-31T00:00:39.174Z,99188.63
2022-12-31T00:00:51.236Z,99190.00
2022-12-31T00:01:08.260Z,99189.81
2022-12-31T00:01:22.510Z,99186.84
2022-12-31T00:01:34.464Z,99192.91
2022-12-31T00:01:46.547Z,99190.13
2022-12-31T00:01:58.718Z,99177.03
2022-12-31T00:02:10.858Z,99182.34
2022-12-31T00:02:22.904Z,99192.56
2022-12-31T00:02:35.516Z,99192.00
2022-12-31T00:02:47.608Z,99195.53
2022-12-31T00:02:59.744Z,99200.75
2022-12-31T00:03:11.892Z,99197.38
2022-12-31T00:03:26.017Z,99189.53
2022-12-31T00:03:39.392Z,99193.25
2022-12-31T00:03:51.751Z,99193.19
2022-12-31T00:04:03.863Z,99183.91
2022-12-31T00:04:15.962Z,99191.00
2022-12-31T00:04:27.908Z,99192.25
2022-12-31T00:04:39.845Z,99187.19
2022-12-31T00:04:51.888Z,99180.38
2022-12-31T00:05:04.499Z,99185.59
2022-12-31T00:05:16.513Z,99188.91
2022-12-31T00:05:31.530Z,99185.66
2022-12-31T00:05:43.465Z,99187.78
2022-12-31T00:05:55.437Z,99186.56
2022-12-31T00:06:36.683Z,99188.63
2022-12-31T00:06:48.610Z,99184.69
2022-12-31T00:07:00.582Z,99183.03
2022-12-31T00:07:12.526Z,99186.69
2022-12-31T00:07:24.473Z,99189.38
2022-12-31T00:07:47.841Z,99189.78
2022-12-31T00:08:00.054Z,99182.59
2022-12-31T00:08:12.032Z,99189.56
2022-12-31T00:08:24.118Z,99182.84
2022-12-31T00:08:36.048Z,99189.78
2022-12-31T00:08:49.040Z,99191.72
2022-12-31T00:09:04.140Z,99191.78
2022-12-31T00:09:16.093Z,99191.34
2022-12-31T00:09:28.029Z,99196.34
2022-12-31T00:09:40.058Z,99189.41
2022-12-31T00:09:51.968Z,99189.25
2022-12-31T00:10:04.881Z,99189.41
2022-12-31T00:10:17.008Z,99185.28
2022-12-31T00:10:29.721Z,99199.13
2022-12-31T00:10:41.869Z,99189.09
2022-12-31T00:10:53.869Z,99186.47
2022-12-31T00:11:08.768Z,99202.25
2022-12-31T00:11:22.202Z,99200.91
2022-12-31T00:11:36.179Z,99187.56
2022-12-31T00:11:48.248Z,99179.09
2022-12-31T00:12:00.219Z,99187.91
2022-12-31T00:12:13.377Z,99198.03
2022-12-31T00:12:25.650Z,99196.16
2022-12-31T00:12:38.951Z,99173.75
2022-12-31T00:12:51.063Z,99195.06
2022-12-31T00:13:02.997Z,99196.09
2022-12-31T00:13:17.878Z,99192.06
2022-12-31T00:13:29.835Z,99195.31
2022-12-31T00:13:46.469Z,99190.00
2022-12-31T00:13:59.123Z,99211.03
2022-12-31T00:14:11.032Z,99197.94
2022-12-31T00:14:22.998Z,99192.63
2022-12-31T00:14:34.964Z,99197.66
2022-12-31T00:14:46.907Z,99201.22
2022-12-31T00:14:58.858Z,99201.38
2022-12-31T00:15:10.776Z,99199.81
2022-12-31T00:15:22.753Z,99201.75
2022-12-31T00:15:37.387Z,99186.78
2022-12-31T00:15:49.308Z,99221.50
2022-12-31T00:16:12.186Z,99188.69
2022-12-31T00:16:28.406Z,99203.28
2022-12-31T00:16:41.954Z,99212.84
2022-12-31T00:16:56.354Z,99208.53
2022-12-31T00:17:08.316Z,99192.06
2022-12-31T00:17:20.279Z,99187.78
2022-12-31T00:17:32.391Z,99194.88
2022-12-31T00:17:44.453Z,99194.28
2022-12-31T00:17:56.392Z,99199.03
2022-12-31T00:18:08.793Z,99204.38
2022-12-31T00:18:20.833Z,99199.81
2022-12-31T00:18:32.766Z,99207.03
2022-12-31T00:18:46.727Z,99202.16
2022-12-31T00:19:00.299Z,99200.88
2022-12-31T00:19:12.786Z,99210.47
2022-12-31T00:19:24.706Z,99204.25
2022-12-31T00:19:36.748Z,99200.66
2022-12-31T00:19:48.713Z,99210.38
2022-12-31T00:20:00.656Z,99204.41
2022-12-31T00:20:12.732Z,99194.97
2022-12-31T00:20:24.660Z,99205.25
2022-12-31T00:20:41.802Z,99212.25
2022-12-31T00:20:53.777Z,99207.09
2022-12-31T00:21:09.770Z,99202.72
2022-12-31T00:21:22.571Z,99204.41
2022-12-31T00:21:35.560Z,99193.94
2022-12-31T00:21:50.463Z,99213.38
2022-12-31T00:22:02.424Z,99197.84
2022-12-31T00:22:14.318Z,99206.25
2022-12-31T00:22:26.285Z,99191.75
2022-12-31T00:22:38.179Z,99199.72
2022-12-31T00:22:50.064Z,99204.75
2022-12-31T00:23:02.460Z,99198.34
2022-12-31T00:23:14.423Z,99195.88
2022-12-31T00:23:26.562Z,99203.41
2022-12-31T00:23:38.671Z,99207.56
2022-12-31T00:23:50.859Z,99206.63
2022-12-31T00:24:04.389Z,99201.59
2022-12-31T00:24:16.358Z,99207.56
2022-12-31T00:24:31.025Z,99208.00
2022-12-31T00:24:43.085Z,99203.09
2022-12-31T00:24:54.988Z,99206.97
2022-12-31T00:25:07.362Z,99195.47
2022-12-31T00:25:21.459Z,99199.88
2022-12-31T00:25:35.852Z,99197.94
2022-12-31T00:25:47.753Z,99202.56
2022-12-31T00:26:14.774Z,99214.00
2022-12-31T00:26:29.193Z,99203.09
2022-12-31T00:26:41.290Z,99210.19
2022-12-31T00:26:53.231Z,99202.16
2022-12-31T00:27:05.141Z,99203.25
2022-12-31T00:27:17.064Z,99213.06
2022-12-31T00:27:32.259Z,99209.59
2022-12-31T00:27:44.402Z,99205.28
2022-12-31T00:27:56.326Z,99204.63
2022-12-31T00:28:08.278Z,99193.13
2022-12-31T00:28:20.217Z,99207.50
2022-12-31T00:28:32.920Z,99212.91
2022-12-31T00:28:45.118Z,99206.09
2022-12-31T00:28:59.294Z,99200.59
2022-12-31T00:29:11.225Z,99229.19
2022-12-31T00:29:23.492Z,99212.56
2022-12-31T00:29:35.427Z,99205.28
2022-12-31T00:29:47.361Z,99206.81
2022-12-31T00:30:04.236Z,99201.16
2022-12-31T00:30:17.002Z,99196.34
2022-12-31T00:30:29.158Z,99207.56
2022-12-31T00:30:41.263Z,99188.06
2022-12-31T00:30:53.637Z,99202.94
2022-12-31T00:31:08.512Z,99213.47
2022-12-31T00:31:24.028Z,99196.38
2022-12-31T00:31:38.154Z,99197.38
2022-12-31T00:31:50.122Z,99200.75
2022-12-31T00:32:02.067Z,99214.09
2022-12-31T00:32:14.074Z,99202.81
2022-12-31T00:32:28.402Z,99205.78
2022-12-31T00:32:40.346Z,99212.28
2022-12-31T00:32:53.146Z,99201.66
2022-12-31T00:33:05.086Z,99206.69
2022-12-31T00:33:17.074Z,99204.00
2022-12-31T00:33:29.133Z,99205.78
2022-12-31T00:33:41.849Z,99204.47
2022-12-31T00:33:54.644Z,99204.31
2022-12-31T00:34:07.169Z,99208.59
2022-12-31T00:34:19.110Z,99209.34
2022-12-31T00:34:31.213Z,99220.00
2022-12-31T00:34:43.188Z,99204.13
2022-12-31T00:34:55.126Z,99204.31
2022-12-31T00:35:07.669Z,99207.50
2022-12-31T00:35:19.573Z,99214.44
2022-12-31T00:35:36.724Z,99240.25
2022-12-31T00:35:48.868Z,99206.97
2022-12-31T00:36:14.929Z,99190.34
2022-12-31T00:36:29.715Z,99205.88
2022-12-31T00:36:42.568Z,99212.50
2022-12-31T00:36:54.526Z,99203.34
2022-12-31T00:37:06.508Z,99192.94
2022-12-31T00:37:18.407Z,99205.63
2022-12-31T00:37:30.350Z,99205.28
2022-12-31T00:37:42.250Z,99200.03
2022-12-31T00:37:54.226Z,99207.72
2022-12-31T00:38:08.508Z,99203.25
2022-12-31T00:38:20.423Z,99203.16
2022-12-31T00:38:32.383Z,99181.97
2022-12-31T00:38:49.183Z,99187.03
2022-12-31T00:39:02.920Z,99209.63
2022-12-31T00:39:14.880Z,99196.28
2022-12-31T00:39:26.830Z,99201.03
2022-12-31T00:39:38.773Z,99194.13
2022-12-31T00:39:51.082Z,99191.03
2022-12-31T00:40:03.750Z,99207.25
2022-12-31T00:40:15.860Z,99212.66
2022-12-31T00:40:29.279Z,99208.91
2022-12-31T00:40:41.164Z,99202.84
2022-12-31T00:40:53.139Z,99197.84
2022-12-31T00:41:05.644Z,99195.22
2022-12-31T00:41:19.047Z,99173.31
2022-12-31T00:41:31.187Z,99204.66
2022-12-31T00:41:44.252Z,99192.69
2022-12-31T00:41:56.376Z,99197.25
2022-12-31T00:42:08.348Z,99186.78
2022-12-31T00:42:20.335Z,99202.41
2022-12-31T00:42:32.291Z,99196.22
2022-12-31T00:42:44.235Z,99203.97
2022-12-31T00:42:56.172Z,99197.72
2022-12-31T00:43:08.076Z,99196.88
2022-12-31T00:43:22.752Z,99189.31
2022-12-31T00:43:35.106Z,99203.16
2022-12-31T00:43:47.463Z,99193.97
2022-12-31T00:43:59.574Z,99207.06
2022-12-31T00:44:12.565Z,99218.06
2022-12-31T00:44:24.487Z,99215.53
2022-12-31T00:44:36.522Z,99191.53
2022-12-31T00:44:50.917Z,99209.94
2022-12-31T00:45:03.148Z,99208.38
2022-12-31T00:45:15.258Z,99200.53
2022-12-31T00:45:27.294Z,99200.25
2022-12-31T00:45:39.317Z,99208.84
2022-12-31T00:45:51.766Z,99205.94
2022-12-31T00:46:05.560Z,99213.44
2022-12-31T00:46:18.261Z,99213.44
2022-12-31T00:46:31.740Z,99216.31
2022-12-31T00:46:55.454Z,99219.53
2022-12-31T00:47:07.705Z,99199.88
2022-12-31T00:47:19.684Z,99207.44
2022-12-31T00:47:31.680Z,99191.94
2022-12-31T00:47:43.716Z,99208.50
2022-12-31T00:47:55.886Z,99218.41
2022-12-31T00:48:07.903Z,99223.38
2022-12-31T00:48:20.169Z,99215.44
2022-12-31T00:48:33.289Z,99217.00
2022-12-31T00:48:46.434Z,99184.84
2022-12-31T00:48:58.681Z,99179.59
2022-12-31T00:49:11.248Z,99219.06
2022-12-31T00:49:23.468Z,99221.66
2022-12-31T00:49:35.605Z,99195.09
2022-12-31T00:49:47.708Z,99217.19
2022-12-31T00:49:59.882Z,99206.53
2022-12-31T00:50:11.905Z,99229.34
2022-12-31T00:50:24.053Z,99189.88
2022-12-31T00:50:36.217Z,99211.97
2022-12-31T00:50:48.286Z,99218.91
2022-12-31T00:51:01.861Z,99211.31
2022-12-31T00:51:16.022Z,99207.44
2022-12-31T00:51:28.480Z,99207.13
2022-12-31T00:51:40.563Z,99214.59
2022-12-31T00:51:52.518Z,99217.41
2022-12-31T00:52:04.765Z,99207.56
2022-12-31T00:52:18.304Z,99233.56
2022-12-31T00:52:30.192Z,99227.69
2022-12-31T00:52:42.268Z,99244.72
2022-12-31T00:52:54.239Z,99200.25
2022-12-31T00:53:06.210Z,99228.53
2022-12-31T00:53:18.265Z,99215.16
2022-12-31T00:53:30.314Z,99207.56
2022-12-31T00:53:42.451Z,99238.19
2022-12-31T00:53:58.252Z,99226.19
2022-12-31T00:54:10.191Z,99226.53
2022-12-31T00:54:22.100Z,99227.88
2022-12-31T00:54:34.220Z,99215.34
2022-12-31T00:54:46.193Z,99250.31
2022-12-31T00:54:58.123Z,99247.72
2022-12-31T00:55:10.093Z,99238.25
2022-12-31T00:55:21.976Z,99226.84
2022-12-31T00:55:36.561Z,99220.97
2022-12-31T00:55:48.553Z,99201.50
2022-12-31T00:56:22.084Z,99223.97
2022-12-31T00:56:34.034Z,99220.97
2022-12-31T00:56:45.927Z,99234.06
2022-12-31T00:56:57.969Z,99204.75
2022-12-31T00:57:09.877Z,99200.19
2022-12-31T00:57:21.873Z,99228.06
2022-12-31T00:57:33.867Z,99233.09
2022-12-31T00:57:46.210Z,99228.63
2022-12-31T00:57:58.166Z,99215.53
2022-12-31T00:58:10.057Z,99253.03
2022-12-31T00:58:21.951Z,99239.47
2022-12-31T00:58:35.794Z,99221.31
2022-12-31T00:58:49.172Z,99235.25
2022-12-31T00:59:01.558Z,99230.28
2022-12-31T00:59:13.476Z,99230.28
2022-12-31T00:59:25.596Z,99220.97
2022-12-31T00:59:37.518Z,99250.25
2022-12-31T00:59:49.400Z,99239.09
2022-12-31T01:00:01.421Z,99249.41
2022-12-31T01:00:15.203Z,99253.91
2022-12-31T01:00:27.142Z,99229.06
2022-12-31T01:00:40.188Z,99243.97
2022-12-31T01:00:52.164Z,99211.50
2022-12-31T01:01:10.015Z,99226.38
2022-12-31T01:01:27.363Z,99238.56
2022-12-31T01:01:40.215Z,99250.91
2022-12-31T01:01:52.264Z,99217.00
2022-12-31T01:02:04.905Z,99243.03
2022-12-31T01:02:17.226Z,99202.72
2022-12-31T01:02:29.550Z,99266.63
2022-12-31T01:02:41.784Z,99242.00
2022-12-31T01:02:54.108Z,99249.38
2022-12-31T01:03:06.703Z,99237.59
2022-12-31T01:03:19.951Z,99235.50
2022-12-31T01:03:31.961Z,99225.97
2022-12-31T01:03:44.719Z,99221.47
2022-12-31T01:04:08.117Z,99235.47
2022-12-31T01:04:21.414Z,99250.66
2022-12-31T01:04:33.582Z,99245.41
2022-12-31T01:04:45.609Z,99235.59
2022-12-31T01:04:57.726Z,99243.19
2022-12-31T01:05:09.765Z,99239.25
2022-12-31T01:05:21.849Z,99244.84
2022-12-31T01:05:34.922Z,99249.25
2022-12-31T01:05:46.971Z,99257.38
2022-12-31T01:05:59.145Z,99266.16
2022-12-31T01:06:11.675Z,99265.41
2022-12-31T01:06:23.889Z,99265.41
2022-12-31T01:06:35.972Z,99235.69
2022-12-31T01:06:48.289Z,99212.88
2022-12-31T01:07:00.202Z,99229.88
2022-12-31T01:07:12.140Z,99234.84
2022-12-31T01:07:24.126Z,99247.00
2022-12-31T01:07:38.089Z,99243.72
2022-12-31T01:07:50.035Z,99251.00
2022-12-31T01:08:02.928Z,99245.75
2022-12-31T01:08:14.829Z,99247.78
2022-12-31T01:08:26.798Z,99238.81
2022-12-31T01:08:38.840Z,99240.53
2022-12-31T01:08:55.166Z,99239.34
2022-12-31T01:09:08.070Z,99240.34
2022-12-31T01:09:21.082Z,99270.16
2022-12-31T01:09:33.008Z,99230.06
2022-12-31T01:09:44.914Z,99221.44
2022-12-31T01:09:58.574Z,99251.91
2022-12-31T01:10:10.691Z,99240.16
2022-12-31T01:10:41.431Z,99235.78
2022-12-31T01:11:15.266Z,99252.66
2022-12-31T01:11:29.440Z,99256.41
2022-12-31T01:11:41.947Z,99234.44
2022-12-31T01:11:53.877Z,99232.88
2022-12-31T01:12:06.171Z,99229.09
2022-12-31T01:12:18.255Z,99232.47
2022-12-31T01:12:30.360Z,99280.44
2022-12-31T01:12:42.264Z,99239.59
2022-12-31T01:12:54.234Z,99243.91
2022-12-31T01:13:06.245Z,99234.44
2022-12-31T01:13:18.197Z,99257.56
2022-12-31T01:13:30.169Z,99248.59
2022-12-31T01:13:42.145Z,99259.25
2022-12-31T01:14:00.620Z,99226.13
2022-12-31T01:14:18.251Z,99235.09
2022-12-31T01:14:32.627Z,99242.94
2022-12-31T01:14:44.664Z,99251.41
2022-12-31T01:14:56.621Z,99254.09
2022-12-31T01:15:08.789Z,99251.16
2022-12-31T01:15:20.673Z,99257.66
2022-12-31T01:15:35.400Z,99239.97
2022-12-31T01:15:47.401Z,99226.44
2022-12-31T01:16:06.792Z,99238.03
2022-12-31T01:16:21.317Z,99233.75
2022-12-31T01:16:37.051Z,99232.47
2022-12-31T01:16:51.528Z,99242.13
2022-12-31T01:17:03.479Z,99233.31
2022-12-31T01:17:17.223Z,99249.28
2022-12-31T01:17:29.440Z,99210.09
2022-12-31T01:17:41.375Z,99244.06
2022-12-31T01:17:53.297Z,99244.25
2022-12-31T01:18:07.159Z,99229.88
2022-12-31T01:18:19.078Z,99257.22
2022-12-31T01:18:31.041Z,99244.34
2022-12-31T01:18:43.191Z,99227.03
2022-12-31T01:18:55.379Z,99242.84
2022-12-31T01:19:11.082Z,99247.63
2022-12-31T01:19:28.530Z,99228.59
2022-12-31T01:19:43.041Z,99242.94
2022-12-31T01:19:54.964Z,99234.19
2022-12-31T01:20:07.495Z,99245.00
2022-12-31T01:20:19.369Z,99251.00
2022-12-31T01:20:35.082Z,99247.19
2022-12-31T01:20:47.021Z,99244.56
2022-12-31T01:21:03.123Z,99259.59
2022-12-31T01:21:15.846Z,99238.47
2022-12-31T01:21:28.998Z,99243.53
2022-12-31T01:21:42.644Z,99240.16
2022-12-31T01:21:55.729Z,99235.50
2022-12-31T01:22:07.807Z,99246.06
2022-12-31T01:22:19.778Z,99229.69
2022-12-31T01:22:31.731Z,99271.66
2022-12-31T01:22:43.723Z,99249.63
2022-12-31T01:22:55.775Z,99248.03
2022-12-31T01:23:09.131Z,99249.63
2022-12-31T01:23:21.063Z,99231.19
2022-12-31T01:23:33.455Z,99239.97
2022-12-31T01:23:45.852Z,99270.84
2022-12-31T01:23:59.301Z,99285.59
2022-12-31T01:24:11.619Z,99236.03
2022-12-31T01:24:23.906Z,99240.34
2022-12-31T01:24:35.801Z,99251.91
2022-12-31T01:24:47.697Z,99240.69
2022-12-31T01:24:59.577Z,99249.50
2022-12-31T01:25:11.473Z,99242.41
2022-12-31T01:25:23.425Z,99282.94
2022-12-31T01:25:39.500Z,99265.00
2022-12-31T01:25:51.427Z,99235.53
2022-12-31T01:26:05.499Z,99251.53
2022-12-31T01:26:20.776Z,99254.88
2022-12-31T01:26:32.882Z,99256.59
2022-12-31T01:26:45.465Z,99251.91
2022-12-31T01:26:57.845Z,99257.00
2022-12-31T01:27:09.958Z,99220.50
2022-12-31T01:27:23.967Z,99253.44
2022-12-31T01:27:36.227Z,99257.56
2022-12-31T01:27:48.145Z,99250.66
2022-12-31T01:28:00.055Z,99281.78
2022-12-31T01:28:12.246Z,99269.38
2022-12-31T01:28:24.231Z,99242.34
2022-12-31T01:28:37.004Z,99269.38
2022-12-31T01:28:49.342Z,99248.41
2022-12-31T01:29:01.421Z,99255.16
2022-12-31T01:29:14.107Z,99250.69
2022-12-31T01:29:26.538Z,99246.91
2022-12-31T01:29:38.455Z,99295.56
2022-12-31T01:29:50.334Z,99265.25
2022-12-31T01:30:02.220Z,99261.13
2022-12-31T01:30:14.101Z,99269.97
2022-12-31T01:30:26.105Z,99261.28
2022-12-31T01:30:39.844Z,99274.38
2022-12-31T01:30:51.879Z,99264.94
2022-12-31T01:31:10.809Z,99265.59
2022-12-31T01:31:24.487Z,99272.59
2022-12-31T01:31:37.831Z,99273.09
2022-12-31T01:31:49.833Z,99269.44
2022-12-31T01:32:01.775Z,99257.19
2022-12-31T01:32:13.729Z,99275.28
2022-12-31T01:32:25.655Z,99255.16
2022-12-31T01:32:37.874Z,99267.13
2022-12-31T01:32:49.757Z,99277.78
2022-12-31T01:33:01.723Z,99275.34
2022-12-31T01:33:13.701Z,99271.03
2022-12-31T01:33:25.636Z,99261.50
2022-12-31T01:33:38.330Z,99273.09
2022-12-31T01:33:52.280Z,99253.81
2022-12-31T01:34:05.384Z,99265.25
2022-12-31T01:34:17.351Z,99277.22
2022-12-31T01:34:29.327Z,99264.06
2022-12-31T01:34:41.217Z,99266.56
2022-12-31T01:34:53.156Z,99269.09
2022-12-31T01:35:08.513Z,99244.50
2022-12-31T01:35:20.560Z,99269.69
2022-12-31T01:35:35.493Z,99293.88
2022-12-31T01:35:47.504Z,99301.75
2022-12-31T01:36:09.900Z,99271.53
2022-12-31T01:36:27.662Z,99267.50
2022-12-31T01:36:39.634Z,99274.69
2022-12-31T01:36:51.597Z,99266.91
2022-12-31T01:37:03.564Z,99271.22
2022-12-31T01:37:15.543Z,99264.88
2022-12-31T01:37:28.082Z,99278.81
2022-12-31T01:37:39.973Z,99251.94
2022-12-31T01:37:51.958Z,99264.13
2022-12-31T01:38:04.101Z,99254.13
2022-12-31T01:38:16.245Z,99239.63
2022-12-31T01:38:28.564Z,99275.34
2022-12-31T01:38:41.819Z,99259.38
2022-12-31T01:38:56.950Z,99258.16
2022-12-31T01:39:11.062Z,99277.25
2022-12-31T01:39:23.063Z,99221.66
2022-12-31T01:39:34.988Z,99282.84
2022-12-31T01:39:46.900Z,99240.00
2022-12-31T01:39:58.804Z,99270.44
2022-12-31T01:40:11.155Z,99246.84
2022-12-31T01:40:23.086Z,99258.16
2022-12-31T01:40:39.420Z,99270.88
2022-12-31T01:40:51.344Z,99279.38
2022-12-31T01:41:04.348Z,99271.03
2022-12-31T01:41:28.472Z,99242.44
2022-12-31T01:41:43.012Z,99264.31
2022-12-31T01:41:54.938Z,99270.50
2022-12-31T01:42:11.803Z,99274.03
2022-12-31T01:42:23.763Z,99241.47
2022-12-31T01:42:35.960Z,99271.97
2022-12-31T01:42:55.344Z,99260.75
2022-12-31T01:43:20.022Z,99250.28
2022-12-31T01:43:50.377Z,99274.25
2022-12-31T01:44:11.179Z,99293.50
2022-12-31T01:44:25.863Z,99249.91
2022-12-31T01:44:40.631Z,99249.16
2022-12-31T01:44:55.875Z,99258.53
2022-12-31T01:45:11.385Z,99249.25
2022-12-31T01:45:23.886Z,99250.94
2022-12-31T01:45:35.886Z,99267.03
2022-12-31T01:45:53.933Z,99249.09
2022-12-31T01:46:05.893Z,99262.06
2022-12-31T01:46:46.498Z,99247.59
2022-12-31T01:47:02.236Z,99271.59
2022-12-31T01:47:17.951Z,99261.88
2022-12-31T01:47:42.111Z,99266.50
2022-12-31T01:47:58.128Z,99252.88
2022-12-31T01:48:14.018Z,99251.34
2022-12-31T01:48:26.975Z,99252.28
2022-12-31T01:48:39.002Z,99245.75
2022-12-31T01:48:53.502Z,99264.84
2022-12-31T01:49:20.402Z,99257.00
2022-12-31T01:49:40.958Z,99248.94
2022-12-31T01:49:59.146Z,99249.13
2022-12-31T01:50:20.711Z,99272.59
2022-12-31T01:50:36.048Z,99263.72
2022-12-31T01:50:48.690Z,99243.19
2022-12-31T01:51:00.771Z,99264.53
2022-12-31T01:51:12.704Z,99254.97
2022-12-31T01:51:29.796Z,99264.13
2022-12-31T01:51:45.538Z,99252.31
2022-12-31T01:52:05.051Z,99255.88
2022-12-31T01:52:22.291Z,99257.56
2022-12-31T01:52:41.296Z,99265.69
2022-12-31T01:52:58.153Z,99266.72
2022-12-31T01:53:11.615Z,99252.59
2022-12-31T01:53:26.159Z,99277.75
2022-12-31T01:53:40.832Z,99254.84
2022-12-31T01:53:53.218Z,99247.66
2022-12-31T01:54:08.669Z,99263.28
2022-12-31T01:54:23.444Z,99260.00
2022-12-31T01:54:40.065Z,99267.66
2022-12-31T01:55:01.084Z,99232.78
2022-12-31T01:55:25.193Z,99262.63
2022-12-31T01:55:53.363Z,99267.84
2022-12-31T01:56:06.745Z,99275.13
2022-12-31T01:56:21.884Z,99253.19
2022-12-31T01:56:36.069Z,99294.03
2022-12-31T01:56:50.948Z,99278.34
2022-12-31T01:57:05.151Z,99273.25
2022-12-31T01:57:17.688Z,99263.47
2022-12-31T01:57:30.898Z,99264.22
2022-12-31T01:57:45.447Z,99262.44
2022-12-31T01:58:04.327Z,99283.38
2022-12-31T01:58:27.672Z,99282.94
2022-12-31T01:58:45.816Z,99280.50
2022-12-31T01:58:58.512Z,99280.59
2022-12-31T01:59:13.187Z,99229.63
2022-12-31T01:59:28.327Z,99278.38
2022-12-31T01:59:40.971Z,99230.28
2022-12-31T01:59:54.915Z,99281.16
2022-12-31T02:00:08.201Z,99271.06
2022-12-31T02:00:20.427Z,99272.94
2022-12-31T02:00:33.091Z,99264.44
2022-12-31T02:00:46.568Z,99270.31
2022-12-31T02:00:59.686Z,99271.44
2022-12-31T02:01:17.640Z,99264.13
2022-12-31T02:01:32.075Z,99262.06
2022-12-31T02:01:46.627Z,99272.66
2022-12-31T02:02:00.154Z,99268.81
2022-12-31T02:02:13.093Z,99274.03
2022-12-31T02:02:27.457Z,99283.31
2022-12-31T02:02:39.723Z,99276.91
2022-12-31T02:02:51.985Z,99265.13
2022-12-31T02:03:06.809Z,99266.44
2022-12-31T02:03:21.467Z,99264.75
2022-12-31T02:03:33.591Z,99273.81
2022-12-31T02:03:45.665Z,99250.31
2022-12-31T02:04:03.858Z,99277.66
2022-12-31T02:04:16.532Z,99282.88
2022-12-31T02:04:29.129Z,99272.84
2022-12-31T02:04:41.405Z,99273.69
2022-12-31T02:04:57.207Z,99271.84
2022-12-31T02:05:41.788Z,99274.81
2022-12-31T02:06:02.815Z,99262.47
2022-12-31T02:06:21.523Z,99273.53
2022-12-31T02:06:39.056Z,99255.28
2022-12-31T02:06:58.282Z,99273.34
2022-12-31T02:07:11.476Z,99259.31
2022-12-31T02:07:23.917Z,99274.00
2022-12-31T02:07:35.913Z,99281.59
2022-12-31T02:07:48.506Z,99240.06
2022-12-31T02:08:00.601Z,99248.84
2022-12-31T02:08:12.866Z,99260.84
2022-12-31T02:08:25.259Z,99273.16
2022-12-31T02:08:41.976Z,99252.28
2022-12-31T02:08:55.826Z,99247.34
2022-12-31T02:09:08.357Z,99249.28
2022-12-31T02:09:20.413Z,99250.91
2022-12-31T02:09:33.698Z,99258.94
2022-12-31T02:09:45.689Z,99260.91
2022-12-31T02:09:57.899Z,99240.41
2022-12-31T02:10:10.106Z,99239.84
2022-12-31T02:10:25.289Z,99274.50
2022-12-31T02:10:37.972Z,99258.94
2022-12-31T02:10:49.975Z,99270.16
2022-12-31T02:11:02.051Z,99254.66
2022-12-31T02:11:24.967Z,99255.56
2022-12-31T02:11:37.975Z,99239.84
2022-12-31T02:11:50.060Z,99248.00
2022-12-31T02:12:02.123Z,99253.50
2022-12-31T02:12:14.640Z,99257.72
2022-12-31T02:12:26.650Z,99260.34
2022-12-31T02:12:39.472Z,99246.22
2022-12-31T02:12:52.372Z,99235.28
2022-12-31T02:13:04.712Z,99256.91
2022-12-31T02:13:16.760Z,99258.56
2022-12-31T02:13:28.738Z,99263.06
2022-12-31T02:13:40.651Z,99273.47
2022-12-31T02:13:58.302Z,99265.88
2022-12-31T02:14:25.857Z,99267.38
2022-12-31T02:14:42.373Z,99251.28
2022-12-31T02:14:55.224Z,99252.63
2022-12-31T02:15:07.927Z,99250.94
2022-12-31T02:15:26.866Z,99255.81
2022-12-31T02:16:03.638Z,99263.69
2022-12-31T02:16:27.183Z,99266.47
2022-12-31T02:17:11.249Z,99255.81
2022-12-31T02:17:32.053Z,99274.13
2022-12-31T02:18:04.404Z,99266.81
2022-12-31T02:18:25.314Z,99259.13
2022-12-31T02:18:51.125Z,99266.06
2022-12-31T02:19:29.172Z,99266.06
2022-12-31T02:20:08.814Z,99260.72
2022-12-31T02:20:48.283Z,99272.78
2022-12-31T02:21:24.761Z,99271.75
2022-12-31T02:21:51.970Z,99276.38
2022-12-31T02:22:41.631Z,99262.63
2022-12-31T02:23:31.421Z,99253.50
2022-12-31T02:23:52.385Z,99270.22
2022-12-31T02:24:17.172Z,99279.19
2022-12-31T02:25:04.614Z,99272.09
2022-12-31T02:25:25.286Z,99277.44
2022-12-31T02:25:56.253Z,99270.03
2022-12-31T02:26:20.388Z,99275.56
2022-12-31T02:27:03.589Z,99279.94
2022-12-31T02:27:24.177Z,99280.03
2022-12-31T02:28:00.460Z,99283.66
2022-12-31T02:28:38.573Z,99279.19
2022-12-31T02:29:11.771Z,99285.94
2022-12-31T02:29:42.311Z,99286.53
2022-12-31T02:30:12.867Z,99288.56
2022-12-31T02:30:28.034Z,99278.00
2022-12-31T02:30:42.148Z,99282.88
2022-12-31T02:31:09.527Z,99291.19
2022-12-31T02:31:28.463Z,99284.06
2022-12-31T02:32:05.393Z,99279.97
2022-12-31T02:32:35.407Z,99285.41
2022-12-31T02:33:02.863Z,99284.19
2022-12-31T02:33:20.722Z,99288.78
2022-12-31T02:33:38.791Z,99283.31
2022-12-31T02:34:11.637Z,99308.69
2022-12-31T02:34:36.677Z,99295.31
2022-12-31T02:34:54.367Z,99295.75
2022-12-31T02:35:15.102Z,99301.00
2022-12-31T02:35:46.663Z,99309.63
2022-12-31T02:36:03.434Z,99299.63
2022-12-31T02:36:20.710Z,99297.91
2022-12-31T02:36:37.524Z,99292.88
2022-12-31T02:36:51.805Z,99300.66
2022-12-31T02:37:10.531Z,99301.50
2022-12-31T02:37:25.669Z,99289.31
2022-12-31T02:37:41.962Z,99291.19
2022-12-31T02:38:01.443Z,99306.41
2022-12-31T02:38:19.392Z,99308.03
2022-12-31T02:38:35.668Z,99296.41
2022-12-31T02:38:48.646Z,99297.91
2022-12-31T02:39:02.844Z,99295.44
2022-12-31T02:39:15.598Z,99281.66
2022-12-31T02:39:29.226Z,99281.94
2022-12-31T02:39:44.051Z,99290.94
2022-12-31T02:39:57.512Z,99292.31
2022-12-31T02:40:14.461Z,99316.56
2022-12-31T02:40:26.994Z,99286.31
2022-12-31T02:40:39.661Z,99280.53
2022-12-31T02:40:53.893Z,99293.63
2022-12-31T02:41:05.959Z,99296.19
2022-12-31T02:41:37.718Z,99286.31
2022-12-31T02:41:51.327Z,99279.13
2022-12-31T02:42:03.465Z,99285.31
2022-12-31T02:42:15.365Z,99284.38
2022-12-31T02:42:27.311Z,99290.06
2022-12-31T02:42:42.326Z,99288.19
2022-12-31T02:42:55.770Z,99283.81
2022-12-31T02:43:07.759Z,99278.84
2022-12-31T02:43:19.960Z,99262.56
2022-12-31T02:43:31.862Z,99283.69
2022-12-31T02:43:47.330Z,99278.84
2022-12-31T02:43:59.631Z,99284.75
2022-12-31T02:44:41.700Z,99277.91
2022-12-31T02:44:53.641Z,99277.91
2022-12-31T02:45:06.724Z,99288.19
2022-12-31T02:45:25.434Z,99273.34
2022-12-31T02:45:41.166Z,99289.91
2022-12-31T02:46:16.656Z,99297.00
2022-12-31T02:46:41.115Z,99282.22
2022-12-31T02:47:02.013Z,99284.09
2022-12-31T02:47:28.851Z,99293.44
2022-12-31T02:47:53.573Z,99304.50
2022-12-31T02:48:23.900Z,99297.31
2022-12-31T02:48:54.930Z,99287.34
2022-12-31T02:49:57.784Z,99278.75
2022-12-31T02:50:28.828Z,99300.09
2022-12-31T02:51:12.230Z,99281.66
2022-12-31T02:51:29.957Z,99277.88
2022-12-31T02:51:56.274Z,99290.81
2022-12-31T02:52:19.014Z,99277.63
2022-12-31T02:52:58.682Z,99278.00
2022-12-31T02:53:37.633Z,99276.78
2022-12-31T02:54:11.936Z,99279.03
2022-12-31T02:54:48.805Z,99286.13
2022-12-31T02:55:25.742Z,99275.66
2022-12-31T02:55:54.790Z,99287.63
2022-12-31T02:56:28.418Z,99281.56
2022-12-31T02:57:05.467Z,99282.41
2022-12-31T02:58:01.480Z,99284.72
2022-12-31T02:59:01.255Z,99291.38
2022-12-31T03:00:19.477Z,99289.69
2022-12-31T03:00:53.383Z,99282.19
2022-12-31T03:01:23.901Z,99287.06
2022-12-31T03:02:00.918Z,99289.31
2022-12-31T03:02:19.222Z,99299.63
2022-12-31T03:02:34.444Z,99288.56
2022-12-31T03:02:48.795Z,99296.06